This is the latest recevied weather packets stored in our database for station/object NUUKSIO. If no packets are shown the sender has not sent any weather packets the latest 10 day(s).
| Time | Temp. | Humidity | Pressure | Rain* | Wind** | Luminosity | Snow |
|---|---|---|---|---|---|---|---|
| 1788354276 | 18.33° C | 66% | 1007.8 hPa | 0 mm | - | - | - |
| 1788351874 | 18.89° C | 66% | 1007.9 hPa | 0 mm | - | - | - |
| 1788350674 | 18.89° C | 60% | 1007.9 hPa | 0 mm | - | - | - |
| 1788348276 | 18.89° C | 56% | 1008.1 hPa | 0 mm | - | - | - |
| 1788347075 | 18.33° C | 62% | 1008.2 hPa | 0 mm | - | - | - |
| 1788345875 | 17.22° C | 68% | 1008.2 hPa | 0 mm | - | - | - |
| 1788344674 | 17.22° C | 65% | 1008.2 hPa | 0 mm | - | - | - |
| 1788343474 | 17.22° C | 70% | 1008.3 hPa | 0 mm | - | - | - |
| 1788342275 | 16.67° C | 69% | 1008.3 hPa | 0 mm | - | - | - |
| 1788341074 | 16.11° C | 72% | 1008.2 hPa | 0 mm | - | - | - |
| 1788339875 | 16.11° C | 73% | 1008.3 hPa | 0 mm | - | - | - |
| 1788338674 | 15.56° C | 74% | 1008.3 hPa | 0 mm | - | - | - |
| 1788337475 | 14.44° C | 79% | 1008.4 hPa | 0 mm | - | - | - |
| 1788336273 | 13.89° C | 85% | 1008.3 hPa | 0 mm | - | - | - |
| 1788333873 | 13.33° C | 88% | 1008.2 hPa | 0 mm | - | - | - |
| 1788332674 | 13.33° C | 91% | 1008.1 hPa | 0 mm | - | - | - |
| 1788331473 | 12.78° C | 96% | 1008 hPa | 0 mm | - | - | - |
| 1788330274 | 11.67° C | 100% | 1008 hPa | 0 mm | - | - | - |
| 1788329075 | 11.67° C | 100% | 1008 hPa | 0 mm | - | - | - |
| 1788327874 | 11.67° C | 100% | 1007.7 hPa | 0 mm | - | - | - |
| 1788325475 | 11.67° C | 100% | 1007.8 hPa | 0 mm | - | - | - |
| 1788324273 | 12.22° C | 100% | 1007.7 hPa | 0 mm | - | - | - |
| 1788323074 | 12.78° C | 100% | 1007.6 hPa | 0 mm | - | - | - |
| 1788300273 | 12.78° C | 100% | 1007.7 hPa | 0 mm | - | - | - |
| 1788299074 | 13.33° C | 100% | 1007.7 hPa | 0 mm | - | - | - |
* Rain latest hour (hover to see other rain measurements)
** Current wind speed in m/s (hover to see current wind gust speed)